Time;durP1;ratioP1;P1;durP2;ratioP2;P2;SDS_P1;SDS_P2;PMS_P1;PMS_P2;Temp;Humidity;BMP_temperature;BMP_pressure;BME280_temperature;BME280_humidity;BME280_pressure;Samples;Min_cycle;Max_cycle;Signal;HPM_P1;HPM_P2
2022/11/22 00:00:57;;;;;;;2.40;1.90;;;;;;;;;;5102350;28;20174;-81
2022/11/22 00:03:23;;;;;;;3.33;2.15;;;;;;;;;;5100753;28;20027;-80
2022/11/22 00:05:49;;;;;;;2.72;1.55;;;;;;;;;;5101601;28;20032;-81
2022/11/22 00:08:16;;;;;;;2.85;1.88;;;;;;;;;;5099531;28;20032;-81
2022/11/22 00:10:42;;;;;;;2.40;1.73;;;;;;;;;;5100423;28;20473;-81
2022/11/22 00:13:08;;;;;;;2.22;1.75;;;;;;;;;;5082776;28;20055;-81
2022/11/22 00:15:34;;;;;;;4.30;2.28;;;;;;;;;;5101135;28;20039;-81
2022/11/22 00:18:00;;;;;;;2.80;1.85;;;;;;;;;;5093738;28;20020;-82
2022/11/22 00:20:26;;;;;;;3.33;2.33;;;;;;;;;;5101219;28;20437;-81
2022/11/22 00:22:52;;;;;;;3.03;1.77;;;;;;;;;;5103465;28;20067;-81
2022/11/22 00:25:19;;;;;;;3.53;2.20;;;;;;;;;;5101937;28;20028;-81
2022/11/22 00:27:45;;;;;;;1.85;1.60;;;;;;;;;;5101782;28;20165;-81
2022/11/22 00:30:11;;;;;;;3.42;1.80;;;;;;;;;;5079418;28;20047;-81
2022/11/22 00:32:37;;;;;;;2.70;1.83;;;;;;;;;;5091491;28;20028;-81
2022/11/22 00:35:03;;;;;;;1.80;1.45;;;;;;;;;;5064106;28;20163;-82
2022/11/22 00:37:29;;;;;;;2.20;1.63;;;;;;;;;;5081197;28;20032;-81
2022/11/22 00:39:55;;;;;;;6.20;2.25;;;;;;;;;;5100342;28;20542;-81
2022/11/22 00:42:21;;;;;;;2.40;1.75;;;;;;;;;;5101799;28;20034;-80
2022/11/22 00:44:47;;;;;;;1.73;1.63;;;;;;;;;;5102109;28;20032;-80
2022/11/22 00:47:13;;;;;;;1.67;1.52;;;;;;;;;;5081880;28;20119;-82
2022/11/22 00:49:39;;;;;;;2.72;1.65;;;;;;;;;;5080838;28;20061;-80
2022/11/22 00:52:05;;;;;;;2.17;1.85;;;;;;;;;;5099599;28;20070;-80
2022/11/22 00:54:31;;;;;;;2.72;1.92;;;;;;;;;;5100552;28;20035;-80
2022/11/22 00:56:57;;;;;;;5.32;1.70;;;;;;;;;;5099378;28;20020;-81
2022/11/22 00:59:23;;;;;;;3.67;1.90;;;;;;;;;;5094338;28;20024;-80
2022/11/22 01:01:49;;;;;;;2.17;1.60;;;;;;;;;;5113708;28;20012;-79
2022/11/22 01:04:15;;;;;;;3.35;2.03;;;;;;;;;;5091693;28;20053;-79
2022/11/22 01:06:41;;;;;;;4.10;1.73;;;;;;;;;;5108595;28;20032;-81
2022/11/22 01:09:07;;;;;;;3.33;1.92;;;;;;;;;;5114958;28;20050;-80
2022/11/22 01:11:33;;;;;;;4.00;1.80;;;;;;;;;;5115614;28;20091;-80
2022/11/22 01:13:59;;;;;;;2.33;1.65;;;;;;;;;;5097804;28;20013;-81
2022/11/22 01:16:25;;;;;;;2.83;1.52;;;;;;;;;;5105769;28;20036;-81
2022/11/22 01:18:51;;;;;;;2.38;1.67;;;;;;;;;;5097805;28;20032;-80
2022/11/22 01:21:17;;;;;;;3.15;1.45;;;;;;;;;;5097916;28;20046;-80
2022/11/22 01:23:43;;;;;;;3.05;1.60;;;;;;;;;;5079334;28;20028;-80
2022/11/22 01:26:09;;;;;;;2.70;1.58;;;;;;;;;;5099290;28;20020;-80
2022/11/22 01:28:36;;;;;;;1.65;1.40;;;;;;;;;;5078938;28;20042;-80
2022/11/22 01:31:02;;;;;;;2.35;1.50;;;;;;;;;;5086648;28;20027;-80
2022/11/22 01:33:28;;;;;;;2.20;1.25;;;;;;;;;;5077318;28;20024;-80
2022/11/22 01:35:54;;;;;;;1.88;1.15;;;;;;;;;;5078584;28;20024;-81
2022/11/22 01:38:20;;;;;;;2.28;1.40;;;;;;;;;;5096559;28;20022;-80
2022/11/22 01:40:46;;;;;;;2.47;1.73;;;;;;;;;;5099645;28;20030;-79
2022/11/22 01:43:20;;;;;;;2.08;1.48;;;;;;;;;;5083908;28;20061;-80
2022/11/22 01:45:48;;;;;;;1.77;1.40;;;;;;;;;;5078222;28;20492;-80
2022/11/22 01:48:20;;;;;;;1.92;1.30;;;;;;;;;;5080282;28;20048;-79
2022/11/22 01:50:48;;;;;;;2.85;1.77;;;;;;;;;;5087562;28;20107;-79
2022/11/22 01:53:17;;;;;;;2.50;1.55;;;;;;;;;;5085921;28;20040;-80
2022/11/22 01:55:44;;;;;;;14.80;1.55;;;;;;;;;;5115622;28;20020;-79
2022/11/22 01:58:12;;;;;;;1.90;1.20;;;;;;;;;;5097958;28;20061;-81
2022/11/22 02:00:38;;;;;;;1.63;1.02;;;;;;;;;;5116286;28;20031;-80
2022/11/22 02:03:06;;;;;;;1.63;1.20;;;;;;;;;;5112897;28;20020;-81
2022/11/22 02:05:34;;;;;;;3.35;1.70;;;;;;;;;;5099829;28;20082;-81
2022/11/22 02:08:07;;;;;;;0.93;0.73;;;;;;;;;;5080333;28;20051;-81
2022/11/22 02:10:34;;;;;;;1.10;0.90;;;;;;;;;;5099918;28;20072;-81
2022/11/22 02:13:01;;;;;;;0.77;0.73;;;;;;;;;;5080673;28;20030;-82
2022/11/22 02:15:28;;;;;;;2.47;0.60;;;;;;;;;;5099024;28;20032;-81
2022/11/22 02:17:56;;;;;;;5.40;0.90;;;;;;;;;;5076208;28;20025;-82
2022/11/22 02:20:22;;;;;;;2.20;0.70;;;;;;;;;;5077550;28;20021;-82
2022/11/22 02:22:51;;;;;;;0.98;0.85;;;;;;;;;;5078532;28;20012;-81
2022/11/22 02:25:32;;;;;;;0.80;0.52;;;;;;;;;;5067455;28;20032;-80
2022/11/22 02:27:58;;;;;;;0.68;0.65;;;;;;;;;;5083287;28;20024;-79
2022/11/22 02:30:24;;;;;;;0.88;0.60;;;;;;;;;;5080079;28;20543;-81
2022/11/22 02:32:50;;;;;;;1.90;0.80;;;;;;;;;;5080416;28;20024;-80
2022/11/22 02:35:18;;;;;;;1.27;0.85;;;;;;;;;;5099448;28;20028;-82
2022/11/22 02:37:44;;;;;;;2.25;0.88;;;;;;;;;;5079880;28;20028;-81
2022/11/22 02:40:13;;;;;;;1.60;0.80;;;;;;;;;;5077801;28;20404;-81
2022/11/22 02:42:39;;;;;;;2.00;0.70;;;;;;;;;;5080239;28;20086;-82
2022/11/22 02:45:06;;;;;;;2.33;0.60;;;;;;;;;;5077751;28;20032;-80
2022/11/22 02:47:32;;;;;;;1.15;0.70;;;;;;;;;;5081271;28;20028;-81
2022/11/22 02:49:58;;;;;;;0.80;0.73;;;;;;;;;;5085050;28;20048;-80
2022/11/22 02:52:24;;;;;;;1.98;0.60;;;;;;;;;;5114599;28;20024;-80
2022/11/22 02:54:50;;;;;;;1.05;0.70;;;;;;;;;;5115454;28;20043;-80
2022/11/22 02:57:16;;;;;;;0.68;0.60;;;;;;;;;;5116083;28;20036;-79
2022/11/22 02:59:42;;;;;;;1.20;0.57;;;;;;;;;;5086621;28;20028;-80
2022/11/22 03:02:08;;;;;;;0.52;0.50;;;;;;;;;;5080989;28;20021;-81
2022/11/22 03:04:34;;;;;;;0.85;0.60;;;;;;;;;;5081563;28;20028;-81
2022/11/22 03:07:00;;;;;;;0.80;0.40;;;;;;;;;;5072567;28;20059;-81
2022/11/22 03:09:27;;;;;;;1.30;0.57;;;;;;;;;;5083019;28;20041;-80
2022/11/22 03:11:53;;;;;;;0.63;0.50;;;;;;;;;;5080684;28;20536;-81
2022/11/22 03:14:19;;;;;;;1.13;0.52;;;;;;;;;;5085407;28;20024;-81
2022/11/22 03:16:46;;;;;;;2.17;0.60;;;;;;;;;;5082988;28;20368;-80
2022/11/22 03:19:13;;;;;;;2.85;0.60;;;;;;;;;;5100991;28;20024;-82
2022/11/22 03:21:40;;;;;;;1.42;0.50;;;;;;;;;;5100409;28;20097;-80
2022/11/22 03:24:06;;;;;;;3.67;0.60;;;;;;;;;;5100707;28;20025;-81
2022/11/22 03:26:33;;;;;;;0.75;0.40;;;;;;;;;;5100641;28;20020;-81
2022/11/22 03:28:59;;;;;;;0.43;0.30;;;;;;;;;;5100614;28;20020;-81
2022/11/22 03:31:25;;;;;;;0.40;0.40;;;;;;;;;;5095239;28;20366;-80
2022/11/22 03:33:52;;;;;;;0.60;0.50;;;;;;;;;;5100041;28;20028;-81
2022/11/22 03:36:18;;;;;;;0.55;0.40;;;;;;;;;;5102602;28;20079;-80
2022/11/22 03:38:44;;;;;;;0.60;0.52;;;;;;;;;;5086931;28;20079;-80
2022/11/22 03:41:10;;;;;;;1.00;0.70;;;;;;;;;;5084247;28;20139;-81
2022/11/22 03:43:37;;;;;;;1.92;0.50;;;;;;;;;;5100463;28;20479;-82
2022/11/22 03:46:03;;;;;;;0.57;0.57;;;;;;;;;;5100588;28;20036;-81
2022/11/22 03:48:29;;;;;;;0.57;0.40;;;;;;;;;;5102296;28;20031;-81
2022/11/22 03:51:02;;;;;;;1.80;0.50;;;;;;;;;;5100114;28;20058;-81
2022/11/22 03:53:28;;;;;;;0.68;0.30;;;;;;;;;;5102431;28;20031;-82
2022/11/22 03:55:54;;;;;;;0.77;0.43;;;;;;;;;;5082024;28;20110;-82
2022/11/22 03:58:20;;;;;;;0.30;0.20;;;;;;;;;;5100753;28;20099;-82
2022/11/22 04:00:46;;;;;;;0.57;0.47;;;;;;;;;;5100364;28;20024;-82
2022/11/22 04:03:12;;;;;;;1.58;0.50;;;;;;;;;;5100540;28;20054;-81
2022/11/22 04:05:38;;;;;;;1.50;0.63;;;;;;;;;;5100889;28;20051;-79
2022/11/22 04:08:04;;;;;;;2.10;0.30;;;;;;;;;;5082902;28;20473;-79
2022/11/22 04:10:30;;;;;;;1.35;0.77;;;;;;;;;;5087335;28;20020;-80
2022/11/22 04:12:57;;;;;;;1.58;0.60;;;;;;;;;;5085407;28;20115;-80
2022/11/22 04:15:23;;;;;;;1.00;0.65;;;;;;;;;;5084857;28;20481;-79
2022/11/22 04:17:49;;;;;;;1.13;0.50;;;;;;;;;;5104590;28;20043;-79
2022/11/22 04:23:21;;;;;;;1.05;0.57;;;;;;;;;;5101837;28;20062;-77
2022/11/22 04:25:51;;;;;;;2.97;0.73;;;;;;;;;;5102419;28;20016;-81
2022/11/22 04:28:18;;;;;;;0.68;0.50;;;;;;;;;;5084332;28;20079;-81
2022/11/22 04:33:29;;;;;;;2.00;0.50;;;;;;;;;;5101999;28;20404;-80
2022/11/22 04:35:55;;;;;;;0.65;0.52;;;;;;;;;;5100676;28;20043;-79
2022/11/22 04:38:22;;;;;;;1.70;0.40;;;;;;;;;;5082526;28;20162;-81
2022/11/22 04:40:48;;;;;;;1.35;0.40;;;;;;;;;;5081903;28;20028;-79
2022/11/22 04:46:04;;;;;;;1.83;0.50;;;;;;;;;;5099093;28;20019;-80
2022/11/22 04:48:30;;;;;;;0.60;0.60;;;;;;;;;;5080881;28;20035;-80
2022/11/22 04:53:41;;;;;;;0.98;0.88;;;;;;;;;;5079380;28;20047;-79
2022/11/22 04:56:07;;;;;;;0.93;0.70;;;;;;;;;;5081190;28;20075;-79
2022/11/22 04:58:33;;;;;;;1.58;0.80;;;;;;;;;;5078624;28;20039;-79
2022/11/22 05:00:59;;;;;;;1.90;0.70;;;;;;;;;;5090740;28;20060;-80
2022/11/22 05:03:25;;;;;;;3.13;0.63;;;;;;;;;;5100433;28;20032;-80
2022/11/22 05:05:51;;;;;;;2.88;0.80;;;;;;;;;;5082449;28;20026;-81
2022/11/22 05:08:17;;;;;;;3.78;0.82;;;;;;;;;;5099114;28;20386;-77
2022/11/22 05:10:58;;;;;;;0.52;0.52;;;;;;;;;;5092056;28;20083;-78
2022/11/22 05:13:34;;;;;;;2.70;0.40;;;;;;;;;;5076821;28;20035;-78
2022/11/22 05:16:01;;;;;;;0.65;0.43;;;;;;;;;;5078938;28;20040;-78
2022/11/22 05:18:28;;;;;;;2.13;1.30;;;;;;;;;;5080848;28;20024;-79
2022/11/22 05:20:54;;;;;;;4.60;1.23;;;;;;;;;;5080357;28;20049;-78
2022/11/22 05:26:06;;;;;;;1.88;1.23;;;;;;;;;;5098940;28;20042;-79
2022/11/22 05:28:33;;;;;;;1.95;1.30;;;;;;;;;;5101216;28;20028;-79
2022/11/22 05:30:59;;;;;;;0.95;0.75;;;;;;;;;;5101465;28;20057;-78
2022/11/22 05:33:25;;;;;;;0.30;0.30;;;;;;;;;;5098656;28;20377;-80
2022/11/22 05:35:51;;;;;;;1.45;0.60;;;;;;;;;;5099816;28;20067;-79
2022/11/22 05:38:17;;;;;;;0.80;0.70;;;;;;;;;;5111914;28;20016;-77
2022/11/22 05:40:43;;;;;;;1.73;0.60;;;;;;;;;;5099107;28;20009;-78
2022/11/22 05:43:10;;;;;;;1.00;0.73;;;;;;;;;;5117017;28;20016;-80
2022/11/22 05:45:36;;;;;;;0.63;0.50;;;;;;;;;;5117506;28;20020;-79
2022/11/22 05:48:02;;;;;;;1.80;0.60;;;;;;;;;;5116461;28;20023;-80
2022/11/22 05:50:28;;;;;;;1.02;0.57;;;;;;;;;;5117113;28;20028;-79
2022/11/22 05:52:54;;;;;;;1.38;0.55;;;;;;;;;;5097698;28;20059;-77
2022/11/22 05:55:20;;;;;;;0.77;0.55;;;;;;;;;;5116768;28;20028;-78
2022/11/22 05:57:46;;;;;;;1.75;0.90;;;;;;;;;;5110752;28;20032;-79
2022/11/22 06:00:12;;;;;;;2.72;0.70;;;;;;;;;;5112351;28;20032;-78
2022/11/22 06:02:38;;;;;;;2.33;0.68;;;;;;;;;;5117123;28;20020;-79
2022/11/22 06:05:04;;;;;;;1.50;0.75;;;;;;;;;;5117474;28;20035;-79
2022/11/22 06:07:31;;;;;;;2.72;0.90;;;;;;;;;;5116435;28;20019;-78
2022/11/22 06:09:57;;;;;;;1.88;0.65;;;;;;;;;;5111819;27;20442;-78
2022/11/22 06:12:23;;;;;;;2.60;0.88;;;;;;;;;;5109547;28;20024;-78
2022/11/22 06:14:49;;;;;;;1.10;0.75;;;;;;;;;;5109834;28;20088;-78
2022/11/22 06:17:15;;;;;;;2.70;1.10;;;;;;;;;;5109576;28;20043;-79
2022/11/22 06:19:41;;;;;;;1.50;0.80;;;;;;;;;;5107839;28;20051;-80
2022/11/22 06:22:08;;;;;;;1.52;0.77;;;;;;;;;;5110333;28;20150;-79
2022/11/22 06:24:34;;;;;;;3.50;1.30;;;;;;;;;;5108854;28;20484;-78
2022/11/22 06:27:00;;;;;;;4.53;1.15;;;;;;;;;;5107102;28;20028;-78
2022/11/22 06:29:26;;;;;;;1.77;1.25;;;;;;;;;;5110204;28;20028;-79
2022/11/22 06:31:52;;;;;;;1.33;0.93;;;;;;;;;;5112391;28;20036;-80
2022/11/22 06:34:18;;;;;;;1.45;0.82;;;;;;;;;;5112410;28;20041;-78
2022/11/22 06:36:45;;;;;;;2.72;1.10;;;;;;;;;;5112277;28;20325;-78
2022/11/22 06:39:11;;;;;;;2.03;0.80;;;;;;;;;;5112831;28;20028;-79
2022/11/22 06:41:37;;;;;;;1.95;1.10;;;;;;;;;;5111997;28;20035;-80
2022/11/22 06:44:07;;;;;;;1.48;1.10;;;;;;;;;;5114741;28;20020;-79
2022/11/22 06:46:34;;;;;;;3.80;1.00;;;;;;;;;;5113864;28;20027;-80
2022/11/22 06:49:00;;;;;;;2.95;1.42;;;;;;;;;;5092460;28;20039;-79
2022/11/22 06:51:27;;;;;;;3.65;1.20;;;;;;;;;;5109613;28;20054;-79
2022/11/22 06:53:54;;;;;;;2.33;1.55;;;;;;;;;;5115396;28;20040;-78
2022/11/22 06:56:22;;;;;;;2.30;1.00;;;;;;;;;;5113516;28;20012;-79
2022/11/22 06:58:49;;;;;;;2.28;1.17;;;;;;;;;;5114813;28;20070;-79
2022/11/22 07:01:17;;;;;;;2.55;1.15;;;;;;;;;;5112382;28;20055;-79
2022/11/22 07:03:43;;;;;;;3.40;1.70;;;;;;;;;;5112922;28;20051;-79
2022/11/22 07:06:10;;;;;;;3.92;1.73;;;;;;;;;;5112742;28;20032;-80
2022/11/22 07:08:36;;;;;;;4.40;1.60;;;;;;;;;;5111424;28;20036;-79
2022/11/22 07:11:07;;;;;;;1.75;1.30;;;;;;;;;;5112632;28;20024;-79
2022/11/22 07:13:34;;;;;;;2.92;1.42;;;;;;;;;;5114130;28;20028;-79
2022/11/22 07:16:01;;;;;;;3.20;1.60;;;;;;;;;;5110151;28;20339;-79
2022/11/22 07:18:27;;;;;;;3.28;1.52;;;;;;;;;;5112393;28;20107;-79
2022/11/22 07:20:53;;;;;;;3.50;1.75;;;;;;;;;;5083894;28;20149;-79
2022/11/22 07:23:19;;;;;;;3.80;1.90;;;;;;;;;;5108467;28;20028;-79
2022/11/22 07:25:46;;;;;;;5.82;2.05;;;;;;;;;;5110991;28;20032;-80
2022/11/22 07:28:13;;;;;;;4.63;1.88;;;;;;;;;;5108390;28;20020;-79
2022/11/22 07:30:39;;;;;;;3.00;1.60;;;;;;;;;;5088190;28;20052;-79
2022/11/22 07:33:05;;;;;;;4.63;1.58;;;;;;;;;;5108007;28;20031;-79
2022/11/22 07:35:31;;;;;;;5.25;1.70;;;;;;;;;;5111036;28;20035;-79
2022/11/22 07:37:58;;;;;;;7.07;2.95;;;;;;;;;;5109853;28;20044;-79
2022/11/22 07:40:24;;;;;;;3.33;1.95;;;;;;;;;;5109880;28;20158;-79
2022/11/22 07:42:50;;;;;;;8.43;2.97;;;;;;;;;;5108965;28;20028;-79
2022/11/22 07:45:16;;;;;;;6.43;2.33;;;;;;;;;;5111396;28;20039;-79
2022/11/22 07:47:42;;;;;;;3.17;2.40;;;;;;;;;;5109710;28;20024;-79
2022/11/22 07:50:08;;;;;;;6.72;2.42;;;;;;;;;;5091495;28;20025;-79
2022/11/22 07:52:35;;;;;;;5.63;2.00;;;;;;;;;;5107992;28;20043;-79
2022/11/22 07:55:01;;;;;;;7.68;2.72;;;;;;;;;;5088708;28;20024;-79
2022/11/22 07:57:27;;;;;;;7.53;3.53;;;;;;;;;;5107295;28;20024;-80
2022/11/22 07:59:53;;;;;;;6.50;2.28;;;;;;;;;;5109728;28;20137;-79
2022/11/22 08:02:19;;;;;;;11.18;2.85;;;;;;;;;;5101971;28;20037;-78
2022/11/22 08:04:45;;;;;;;3.35;1.75;;;;;;;;;;5095469;28;20032;-79
2022/11/22 08:07:11;;;;;;;5.88;2.28;;;;;;;;;;5106453;28;20059;-79
2022/11/22 08:09:37;;;;;;;5.07;2.58;;;;;;;;;;5109817;28;20032;-78
2022/11/22 08:12:03;;;;;;;5.18;2.33;;;;;;;;;;5111231;28;20024;-76
2022/11/22 08:14:29;;;;;;;6.07;2.45;;;;;;;;;;5113194;28;20085;-77
2022/11/22 08:16:55;;;;;;;7.22;2.47;;;;;;;;;;5116557;28;20028;-79
2022/11/22 08:19:21;;;;;;;9.30;3.17;;;;;;;;;;5088147;28;20400;-77
2022/11/22 08:21:48;;;;;;;6.32;3.38;;;;;;;;;;5105764;28;20521;-77
2022/11/22 08:24:14;;;;;;;5.78;2.80;;;;;;;;;;5108727;28;20035;-79
2022/11/22 08:26:41;;;;;;;6.28;2.72;;;;;;;;;;5085577;28;20100;-81
2022/11/22 08:29:08;;;;;;;6.65;2.70;;;;;;;;;;5104392;28;20100;-79
2022/11/22 08:31:34;;;;;;;6.18;3.17;;;;;;;;;;5107715;28;20353;-79
2022/11/22 08:34:00;;;;;;;8.77;2.78;;;;;;;;;;5085404;28;20032;-79
2022/11/22 08:36:27;;;;;;;3.90;2.35;;;;;;;;;;5093098;28;20036;-79
2022/11/22 08:38:53;;;;;;;6.85;2.80;;;;;;;;;;5109116;28;20030;-79
2022/11/22 08:41:19;;;;;;;6.10;2.58;;;;;;;;;;5106576;28;20076;-78
2022/11/22 08:43:45;;;;;;;6.70;2.85;;;;;;;;;;5105503;28;20055;-78
2022/11/22 08:46:11;;;;;;;7.53;2.50;;;;;;;;;;5103486;28;20050;-79
2022/11/22 08:48:37;;;;;;;7.10;2.33;;;;;;;;;;5106016;28;20054;-78
2022/11/22 08:51:05;;;;;;;6.82;2.50;;;;;;;;;;5105239;28;20073;-80
2022/11/22 08:53:31;;;;;;;5.05;2.40;;;;;;;;;;5102732;28;20020;-78
2022/11/22 08:56:01;;;;;;;5.72;2.65;;;;;;;;;;5100618;28;20061;-78
2022/11/22 08:58:29;;;;;;;7.72;2.70;;;;;;;;;;5085143;28;20036;-80
2022/11/22 09:00:56;;;;;;;7.00;2.92;;;;;;;;;;5100554;28;20046;-78
2022/11/22 09:03:22;;;;;;;6.50;2.90;;;;;;;;;;5083854;28;20084;-80
2022/11/22 09:05:48;;;;;;;10.93;2.78;;;;;;;;;;5097326;28;20035;-78
2022/11/22 09:08:14;;;;;;;9.30;3.00;;;;;;;;;;5107159;28;20106;-79
2022/11/22 09:10:40;;;;;;;6.60;3.03;;;;;;;;;;5106941;28;20110;-79
2022/11/22 09:13:06;;;;;;;5.88;2.67;;;;;;;;;;5103716;28;20028;-80
2022/11/22 09:15:33;;;;;;;7.50;2.78;;;;;;;;;;5082224;28;20055;-78
2022/11/22 09:18:02;;;;;;;7.22;2.72;;;;;;;;;;5089927;28;20047;-80
2022/11/22 09:20:28;;;;;;;7.45;2.50;;;;;;;;;;5099722;28;20465;-79
2022/11/22 09:22:54;;;;;;;7.18;2.80;;;;;;;;;;5103361;28;20032;-79
2022/11/22 09:25:21;;;;;;;8.63;2.85;;;;;;;;;;5104562;28;20106;-79
2022/11/22 09:27:47;;;;;;;3.97;2.30;;;;;;;;;;5088079;28;20122;-78
2022/11/22 09:30:13;;;;;;;4.43;2.20;;;;;;;;;;5105492;28;20016;-80
2022/11/22 09:32:39;;;;;;;6.97;2.33;;;;;;;;;;5097696;28;20024;-80
2022/11/22 09:35:05;;;;;;;8.43;2.00;;;;;;;;;;5104225;28;20043;-79
2022/11/22 09:37:31;;;;;;;6.72;3.15;;;;;;;;;;5105150;28;20021;-78
2022/11/22 09:39:57;;;;;;;4.15;2.63;;;;;;;;;;5086495;28;20020;-79
2022/11/22 09:42:23;;;;;;;3.92;1.67;;;;;;;;;;5107935;28;20024;-79
2022/11/22 09:45:08;;;;;;;3.05;1.92;;;;;;;;;;5107724;28;20100;-78
2022/11/22 09:47:52;;;;;;;3.80;1.90;;;;;;;;;;5086910;28;20505;-79
2022/11/22 09:50:22;;;;;;;6.53;2.17;;;;;;;;;;5107527;28;20004;-79
2022/11/22 09:52:55;;;;;;;5.93;2.53;;;;;;;;;;5110347;28;20036;-80
2022/11/22 09:55:25;;;;;;;6.63;2.65;;;;;;;;;;5109146;28;20035;-79
2022/11/22 09:58:04;;;;;;;8.80;2.28;;;;;;;;;;5105747;28;20024;-78
2022/11/22 10:00:31;;;;;;;8.05;2.58;;;;;;;;;;5105245;28;20020;-79
2022/11/22 10:03:03;;;;;;;3.25;1.83;;;;;;;;;;5078562;28;20627;-78
2022/11/22 10:05:46;;;;;;;3.38;1.67;;;;;;;;;;5073530;28;20028;-79
2022/11/22 10:08:17;;;;;;;5.30;2.17;;;;;;;;;;5111657;28;20091;-79
2022/11/22 10:10:43;;;;;;;6.05;1.60;;;;;;;;;;5110754;28;20087;-77
2022/11/22 10:13:22;;;;;;;4.68;1.77;;;;;;;;;;5111897;28;20020;-78
2022/11/22 10:15:52;;;;;;;4.93;1.90;;;;;;;;;;5094559;28;20048;-78
2022/11/22 10:18:38;;;;;;;8.25;2.03;;;;;;;;;;5091384;28;20092;-78
2022/11/22 10:21:04;;;;;;;5.30;1.40;;;;;;;;;;5103385;28;20052;-79
2022/11/22 10:23:31;;;;;;;6.38;2.85;;;;;;;;;;5102523;28;20052;-79
2022/11/22 10:26:17;;;;;;;5.90;1.90;;;;;;;;;;5104690;28;20028;-80
2022/11/22 10:28:53;;;;;;;5.05;1.70;;;;;;;;;;5087647;28;20040;-77
2022/11/22 10:31:42;;;;;;;6.22;1.92;;;;;;;;;;5100962;28;20047;-78
2022/11/22 10:34:17;;;;;;;7.97;1.38;;;;;;;;;;5091606;28;20050;-78
2022/11/22 10:37:01;;;;;;;4.82;1.33;;;;;;;;;;5103313;28;20023;-78
2022/11/22 10:39:46;;;;;;;9.80;2.03;;;;;;;;;;5101342;28;20031;-79
2022/11/22 10:42:21;;;;;;;5.85;1.80;;;;;;;;;;5100571;28;20020;-79
2022/11/22 10:44:57;;;;;;;4.53;1.67;;;;;;;;;;5099742;28;20092;-79
2022/11/22 10:47:31;;;;;;;4.75;1.60;;;;;;;;;;5098808;28;20051;-80
2022/11/22 10:49:57;;;;;;;5.43;1.60;;;;;;;;;;5084888;28;20035;-79
2022/11/22 10:52:23;;;;;;;6.57;1.77;;;;;;;;;;5102967;28;20037;-78
2022/11/22 10:54:52;;;;;;;4.20;1.52;;;;;;;;;;5099169;28;20067;-78
2022/11/22 10:57:29;;;;;;;5.68;1.40;;;;;;;;;;5098219;28;20020;-78
2022/11/22 10:59:55;;;;;;;4.72;2.20;;;;;;;;;;5109514;28;20039;-78
2022/11/22 11:02:24;;;;;;;7.18;1.60;;;;;;;;;;5107038;28;20012;-78
2022/11/22 11:04:51;;;;;;;8.20;1.58;;;;;;;;;;5084077;28;20035;-78
2022/11/22 11:07:20;;;;;;;6.40;2.05;;;;;;;;;;5099604;28;20042;-78
2022/11/22 11:09:48;;;;;;;4.32;1.45;;;;;;;;;;5101282;28;20027;-78
2022/11/22 11:12:17;;;;;;;3.80;1.25;;;;;;;;;;5106135;28;20016;-79
2022/11/22 11:14:45;;;;;;;6.10;1.52;;;;;;;;;;5096887;28;20028;-78
2022/11/22 11:17:17;;;;;;;7.35;1.65;;;;;;;;;;5104842;28;20035;-78
2022/11/22 11:19:45;;;;;;;3.45;1.45;;;;;;;;;;5106407;28;20483;-78
2022/11/22 11:22:22;;;;;;;5.53;1.40;;;;;;;;;;5104864;28;20020;-79
2022/11/22 11:24:48;;;;;;;8.65;1.90;;;;;;;;;;5106411;28;20028;-78
2022/11/22 11:27:16;;;;;;;7.25;1.92;;;;;;;;;;5104784;28;20095;-79
2022/11/22 11:29:47;;;;;;;4.97;1.30;;;;;;;;;;5087220;28;20073;-80
2022/11/22 11:32:16;;;;;;;7.13;1.98;;;;;;;;;;5103990;28;20020;-79
2022/11/22 11:34:50;;;;;;;6.40;2.30;;;;;;;;;;5082063;28;20035;-78
2022/11/22 11:37:24;;;;;;;5.28;1.48;;;;;;;;;;5099005;28;20028;-79
2022/11/22 11:39:50;;;;;;;7.85;2.55;;;;;;;;;;5083394;28;20048;-77
2022/11/22 11:42:24;;;;;;;4.55;1.60;;;;;;;;;;5103682;28;20515;-78
2022/11/22 11:44:50;;;;;;;5.20;1.60;;;;;;;;;;5086718;28;20032;-78
2022/11/22 11:47:25;;;;;;;5.20;1.50;;;;;;;;;;5105731;28;20035;-79
2022/11/22 11:49:51;;;;;;;5.72;1.70;;;;;;;;;;5105581;28;20055;-78
2022/11/22 11:52:24;;;;;;;4.72;1.50;;;;;;;;;;5101281;28;20505;-78
2022/11/22 11:54:54;;;;;;;7.40;1.15;;;;;;;;;;5101894;28;20023;-78
2022/11/22 11:57:20;;;;;;;3.20;1.42;;;;;;;;;;5081092;28;20031;-79
2022/11/22 11:59:48;;;;;;;2.67;1.48;;;;;;;;;;5102332;28;20028;-78
2022/11/22 12:02:17;;;;;;;3.22;1.35;;;;;;;;;;5100638;28;20020;-78
2022/11/22 12:04:48;;;;;;;4.35;1.30;;;;;;;;;;5083332;28;20021;-79
2022/11/22 12:07:23;;;;;;;4.22;2.17;;;;;;;;;;5084108;28;20107;-80
2022/11/22 12:09:50;;;;;;;9.38;2.10;;;;;;;;;;5083293;28;20033;-78
2022/11/22 12:12:28;;;;;;;6.97;1.70;;;;;;;;;;5091506;28;20023;-78
2022/11/22 12:14:58;;;;;;;5.65;1.60;;;;;;;;;;5101091;28;20020;-78
2022/11/22 12:17:26;;;;;;;4.88;1.40;;;;;;;;;;5100257;28;20473;-79
2022/11/22 12:20:03;;;;;;;3.88;1.25;;;;;;;;;;5101970;28;20028;-79
2022/11/22 12:22:34;;;;;;;4.82;1.40;;;;;;;;;;5086060;28;20178;-79
2022/11/22 12:25:16;;;;;;;4.25;1.52;;;;;;;;;;5103226;28;20016;-78
2022/11/22 12:27:42;;;;;;;7.82;1.95;;;;;;;;;;5101195;28;20035;-80
2022/11/22 12:30:11;;;;;;;3.53;1.17;;;;;;;;;;5103102;28;20031;-79
2022/11/22 12:32:41;;;;;;;2.17;1.38;;;;;;;;;;5101511;28;20476;-79
2022/11/22 12:35:15;;;;;;;4.90;1.60;;;;;;;;;;5084951;28;20028;-77
2022/11/22 12:37:53;;;;;;;4.20;1.40;;;;;;;;;;5101485;28;20540;-78
2022/11/22 12:40:27;;;;;;;5.20;1.42;;;;;;;;;;5101014;28;20016;-78
2022/11/22 12:42:58;;;;;;;2.05;1.48;;;;;;;;;;5102015;28;20055;-78
2022/11/22 12:45:27;;;;;;;5.13;1.30;;;;;;;;;;5088319;28;20036;-78
2022/11/22 12:47:55;;;;;;;3.80;1.15;;;;;;;;;;5081613;28;20033;-78
2022/11/22 12:50:24;;;;;;;3.70;1.65;;;;;;;;;;5100001;28;20039;-78
2022/11/22 12:52:59;;;;;;;3.88;0.82;;;;;;;;;;5102093;28;20024;-79
2022/11/22 12:55:31;;;;;;;4.07;1.23;;;;;;;;;;5100225;28;20039;-78
2022/11/22 12:58:17;;;;;;;3.13;1.30;;;;;;;;;;5101940;28;20138;-78
2022/11/22 13:01:15;;;;;;;3.38;1.15;;;;;;;;;;5090127;28;20027;-77
2022/11/22 13:03:45;;;;;;;2.13;0.88;;;;;;;;;;5060008;28;20036;-78
2022/11/22 13:06:12;;;;;;;1.80;1.00;;;;;;;;;;5101524;28;20035;-79
2022/11/22 13:08:42;;;;;;;4.80;2.10;;;;;;;;;;5102056;28;20039;-78
2022/11/22 13:11:15;;;;;;;4.15;2.03;;;;;;;;;;5104420;28;20020;-79
2022/11/22 13:13:43;;;;;;;4.18;1.52;;;;;;;;;;5084946;28;20024;-79
2022/11/22 13:16:10;;;;;;;2.60;1.50;;;;;;;;;;5087307;28;20080;-79
2022/11/22 13:18:47;;;;;;;3.83;1.30;;;;;;;;;;5096649;28;20038;-78
2022/11/22 13:21:20;;;;;;;4.50;1.20;;;;;;;;;;5110725;28;20415;-78
2022/11/22 13:24:05;;;;;;;8.07;1.40;;;;;;;;;;5110297;28;20032;-78
2022/11/22 13:26:37;;;;;;;2.38;1.08;;;;;;;;;;5111076;28;20118;-78
2022/11/22 13:29:09;;;;;;;6.25;1.40;;;;;;;;;;5112421;28;20073;-78
2022/11/22 13:31:35;;;;;;;4.90;1.40;;;;;;;;;;5111702;28;20032;-79
2022/11/22 13:34:02;;;;;;;2.78;1.73;;;;;;;;;;5112038;28;20024;-78
2022/11/22 13:36:31;;;;;;;3.80;1.50;;;;;;;;;;5108778;28;20028;-78
2022/11/22 13:38:58;;;;;;;2.25;1.70;;;;;;;;;;5110844;28;20090;-80
2022/11/22 13:41:24;;;;;;;4.20;1.45;;;;;;;;;;5108000;28;20030;-79
2022/11/22 13:43:53;;;;;;;3.78;1.63;;;;;;;;;;5092150;28;20100;-78
2022/11/22 13:46:38;;;;;;;4.45;1.80;;;;;;;;;;5111111;28;20061;-78
2022/11/22 13:49:12;;;;;;;3.42;1.40;;;;;;;;;;5113975;28;20031;-77
2022/11/22 13:51:54;;;;;;;5.10;1.73;;;;;;;;;;5114355;28;20043;-78
2022/11/22 13:54:37;;;;;;;5.25;1.75;;;;;;;;;;5097923;28;20063;-79
2022/11/22 13:57:04;;;;;;;4.00;1.15;;;;;;;;;;5114035;28;20050;-78
2022/11/22 13:59:31;;;;;;;3.35;1.40;;;;;;;;;;5111396;28;20050;-79
2022/11/22 14:01:58;;;;;;;3.65;1.30;;;;;;;;;;5107202;28;20020;-77
2022/11/22 14:04:25;;;;;;;5.78;1.10;;;;;;;;;;5109664;28;20024;-78
2022/11/22 14:06:51;;;;;;;2.95;1.30;;;;;;;;;;5110418;28;20021;-77
2022/11/22 14:09:49;;;;;;;1.67;1.42;;;;;;;;;;5111217;28;20047;-78
2022/11/22 14:12:27;;;;;;;4.68;1.63;;;;;;;;;;5061183;28;20044;-78
2022/11/22 14:14:53;;;;;;;5.18;2.05;;;;;;;;;;5108401;28;20077;-77
2022/11/22 14:17:44;;;;;;;4.78;1.95;;;;;;;;;;5097728;28;20028;-77
2022/11/22 14:20:19;;;;;;;8.02;3.70;;;;;;;;;;5100786;28;20024;-78
2022/11/22 14:23:04;;;;;;;6.90;3.45;;;;;;;;;;5102860;28;20043;-79
2022/11/22 14:25:43;;;;;;;7.00;3.38;;;;;;;;;;5098624;28;20039;-79
2022/11/22 14:28:15;;;;;;;7.10;2.88;;;;;;;;;;5114888;28;20012;-78
2022/11/22 14:30:51;;;;;;;5.78;2.60;;;;;;;;;;5102742;28;20040;-79
2022/11/22 14:33:19;;;;;;;8.90;5.38;;;;;;;;;;5098536;28;20032;-79
2022/11/22 14:36:03;;;;;;;10.25;4.18;;;;;;;;;;5098000;28;20036;-79
2022/11/22 14:38:31;;;;;;;5.75;2.17;;;;;;;;;;5099030;28;20025;-79
2022/11/22 14:41:16;;;;;;;4.82;1.95;;;;;;;;;;5102017;28;20469;-78
2022/11/22 14:43:42;;;;;;;3.42;1.60;;;;;;;;;;5098444;28;20024;-78
2022/11/22 14:46:10;;;;;;;4.18;1.48;;;;;;;;;;5096932;28;20058;-79
2022/11/22 14:49:03;;;;;;;4.03;1.52;;;;;;;;;;5102082;28;20058;-78
2022/11/22 14:51:30;;;;;;;4.35;1.30;;;;;;;;;;5096366;28;20503;-79
2022/11/22 14:54:00;;;;;;;3.35;1.58;;;;;;;;;;5102882;28;20472;-78
2022/11/22 14:56:26;;;;;;;4.65;1.48;;;;;;;;;;5101716;28;20053;-78
2022/11/22 14:58:52;;;;;;;2.70;1.35;;;;;;;;;;5106093;28;20020;-79
2022/11/22 15:01:21;;;;;;;7.53;1.92;;;;;;;;;;5106383;28;20020;-78
2022/11/22 15:04:00;;;;;;;5.25;1.77;;;;;;;;;;5105557;28;20020;-79
2022/11/22 15:06:26;;;;;;;3.83;1.48;;;;;;;;;;5105324;28;20046;-79